createdAt,value
2022-10-16T00:02:19.390Z,87.52
2022-10-16T00:04:49.396Z,87.60
2022-10-16T00:07:23.620Z,87.74
2022-10-16T00:09:53.753Z,88.02
2022-10-16T00:12:23.207Z,88.15
2022-10-16T00:15:08.383Z,88.29
2022-10-16T00:17:37.643Z,88.29
2022-10-16T00:20:07.147Z,88.29
2022-10-16T00:22:37.367Z,88.27
2022-10-16T00:25:06.201Z,88.50
2022-10-16T00:27:41.324Z,88.99
2022-10-16T00:30:12.945Z,89.03
2022-10-16T00:32:43.420Z,89.01
2022-10-16T00:35:21.412Z,88.95
2022-10-16T00:37:50.051Z,88.81
2022-10-16T00:40:18.736Z,88.78
2022-10-16T00:42:47.244Z,88.70
2022-10-16T00:45:15.891Z,88.72
2022-10-16T00:47:50.942Z,88.62
2022-10-16T00:50:35.435Z,88.46
2022-10-16T00:53:04.804Z,88.32
2022-10-16T00:55:36.525Z,88.23
2022-10-16T00:58:13.110Z,88.20
2022-10-16T01:00:41.678Z,88.20
2022-10-16T01:03:35.573Z,88.21
2022-10-16T01:06:16.343Z,88.15
2022-10-16T01:09:07.408Z,88.06
2022-10-16T01:11:53.900Z,87.86
2022-10-16T01:14:47.386Z,87.88
2022-10-16T01:18:07.234Z,87.98
2022-10-16T01:20:49.318Z,88.00
2022-10-16T01:23:50.198Z,88.04
2022-10-16T01:27:17.195Z,88.10
2022-10-16T01:29:57.632Z,88.03
2022-10-16T01:33:11.368Z,88.16
2022-10-16T01:36:08.618Z,88.20
2022-10-16T01:38:40.930Z,88.28
2022-10-16T01:41:27.452Z,88.30
2022-10-16T01:44:24.211Z,88.26
2022-10-16T01:46:58.316Z,88.20
2022-10-16T01:49:35.532Z,88.13
2022-10-16T01:52:21.144Z,88.17
2022-10-16T01:54:58.205Z,88.38
2022-10-16T01:57:31.205Z,88.30
2022-10-16T02:00:10.605Z,88.20
2022-10-16T02:02:44.700Z,88.12
2022-10-16T02:08:31.157Z,88.10
2022-10-16T02:11:02.362Z,88.11
2022-10-16T02:13:56.802Z,88.18
2022-10-16T02:16:37.104Z,88.21
2022-10-16T02:19:07.641Z,88.15
2022-10-16T02:21:50.071Z,88.12
2022-10-16T02:24:52.441Z,88.10
2022-10-16T02:27:36.160Z,88.11
2022-10-16T02:30:15.730Z,88.10
2022-10-16T02:32:49.055Z,87.96
2022-10-16T02:35:21.175Z,88.00
2022-10-16T02:37:52.065Z,88.04
2022-10-16T02:40:24.465Z,87.98
2022-10-16T02:42:56.419Z,87.97
2022-10-16T02:45:26.810Z,88.00
2022-10-16T02:47:55.404Z,87.97
2022-10-16T02:50:25.609Z,87.89
2022-10-16T02:52:54.240Z,87.76
2022-10-16T02:55:22.914Z,87.71
2022-10-16T02:57:51.530Z,87.70
2022-10-16T03:00:19.997Z,87.70
2022-10-16T03:02:48.511Z,87.77
2022-10-16T03:05:18.540Z,87.69
2022-10-16T03:07:47.183Z,87.57
2022-10-16T03:10:16.067Z,87.52
2022-10-16T03:12:44.706Z,87.51
2022-10-16T03:15:13.331Z,87.59
2022-10-16T03:17:42.147Z,87.58
2022-10-16T03:20:11.193Z,87.47
2022-10-16T03:22:40.121Z,87.37
2022-10-16T03:25:09.340Z,87.37
2022-10-16T03:27:37.886Z,87.46
2022-10-16T03:30:07.204Z,87.51
2022-10-16T03:35:05.659Z,87.45
2022-10-16T03:37:34.485Z,87.40
2022-10-16T03:40:04.394Z,87.40
2022-10-16T03:42:32.749Z,87.44
2022-10-16T03:45:01.165Z,87.52
2022-10-16T03:47:29.861Z,87.56
2022-10-16T03:49:58.440Z,87.52
2022-10-16T03:52:27.995Z,87.50
2022-10-16T03:54:57.065Z,87.40
2022-10-16T03:57:26.036Z,87.36
2022-10-16T03:59:54.724Z,87.32
2022-10-16T04:02:29.533Z,87.14
2022-10-16T04:04:57.980Z,87.04
2022-10-16T04:07:26.684Z,87.00
2022-10-16T04:09:55.916Z,87.08
2022-10-16T04:12:24.425Z,87.17
2022-10-16T04:14:52.924Z,87.42
2022-10-16T04:17:21.405Z,87.57
2022-10-16T04:19:49.924Z,87.66
2022-10-16T04:22:37.322Z,87.70
2022-10-16T04:25:49.771Z,87.78
2022-10-16T04:28:40.804Z,87.90
2022-10-16T04:31:27.023Z,87.95
2022-10-16T04:33:55.674Z,88.01
2022-10-16T04:36:26.785Z,88.09
2022-10-16T04:38:57.922Z,88.10
2022-10-16T04:41:26.482Z,88.10
2022-10-16T04:43:55.030Z,88.09
2022-10-16T04:46:23.861Z,88.11
2022-10-16T04:48:52.491Z,88.10
2022-10-16T04:51:21.072Z,88.10
2022-10-16T04:53:49.537Z,88.01
2022-10-16T04:56:18.117Z,87.99
2022-10-16T04:58:46.623Z,87.90
2022-10-16T05:01:28.268Z,87.84
2022-10-16T05:04:02.766Z,87.90
2022-10-16T05:06:31.816Z,87.97
2022-10-16T05:09:00.411Z,88.05
2022-10-16T05:11:29.016Z,88.12
2022-10-16T05:13:57.919Z,88.27
2022-10-16T05:16:26.768Z,88.31
2022-10-16T05:18:56.259Z,88.33
2022-10-16T05:21:39.215Z,88.28
2022-10-16T05:24:07.684Z,88.26
2022-10-16T05:26:36.368Z,88.23
2022-10-16T05:29:05.310Z,88.23
2022-10-16T05:31:33.952Z,88.20
2022-10-16T05:34:03.732Z,88.20
2022-10-16T05:36:32.649Z,88.14
2022-10-16T05:39:01.151Z,88.07
2022-10-16T05:41:30.250Z,88.00
2022-10-16T05:43:58.927Z,88.00
2022-10-16T05:46:27.293Z,88.09
2022-10-16T05:48:56.197Z,88.10
2022-10-16T05:51:24.877Z,88.10
2022-10-16T05:53:54.413Z,88.05
2022-10-16T05:56:24.010Z,88.02
2022-10-16T05:58:53.300Z,87.93
2022-10-16T06:01:25.530Z,87.84
2022-10-16T06:03:55.440Z,87.89
2022-10-16T06:06:28.085Z,87.78
2022-10-16T06:08:59.029Z,87.69
2022-10-16T06:11:31.369Z,87.62
2022-10-16T06:14:04.000Z,87.62
2022-10-16T06:16:32.729Z,87.62
2022-10-16T06:19:01.818Z,87.61
2022-10-16T06:21:30.849Z,87.53
2022-10-16T06:23:59.649Z,87.42
2022-10-16T06:26:31.666Z,87.32
2022-10-16T06:29:01.423Z,87.18
2022-10-16T06:31:32.272Z,87.11
2022-10-16T06:34:01.952Z,87.07
2022-10-16T06:36:30.549Z,86.93
2022-10-16T06:38:59.209Z,86.81
2022-10-16T06:41:27.883Z,86.72
2022-10-16T06:43:56.375Z,86.69
2022-10-16T06:46:27.242Z,86.62
2022-10-16T06:48:55.790Z,86.55
2022-10-16T06:51:26.669Z,86.46
2022-10-16T06:54:03.422Z,86.42
2022-10-16T06:56:34.769Z,86.39
2022-10-16T06:59:05.094Z,86.39
2022-10-16T07:01:34.625Z,86.25
2022-10-16T07:04:03.886Z,86.15
2022-10-16T07:06:35.488Z,86.08
2022-10-16T07:09:08.828Z,85.89
2022-10-16T07:11:41.313Z,85.66
2022-10-16T07:14:20.674Z,85.54
2022-10-16T07:16:52.424Z,85.51
2022-10-16T07:19:24.820Z,85.51
2022-10-16T07:21:54.206Z,85.31
2022-10-16T07:24:23.279Z,85.16
2022-10-16T07:26:52.374Z,85.03
2022-10-16T07:29:23.411Z,84.85
2022-10-16T07:31:52.307Z,84.73
2022-10-16T07:34:23.429Z,84.54
2022-10-16T07:36:52.657Z,84.35
2022-10-16T07:39:21.339Z,84.11
2022-10-16T07:41:49.913Z,84.06
2022-10-16T07:44:18.397Z,83.92
2022-10-16T07:46:46.988Z,83.85
2022-10-16T07:49:15.784Z,83.62
2022-10-16T07:51:44.555Z,83.59
2022-10-16T07:54:13.106Z,83.43
2022-10-16T07:56:43.885Z,83.26
2022-10-16T07:59:13.389Z,83.02
2022-10-16T08:01:43.613Z,82.95
2022-10-16T08:06:38.340Z,82.68
2022-10-16T08:09:08.717Z,82.40
2022-10-16T08:11:37.437Z,82.29
2022-10-16T08:14:06.228Z,82.10
2022-10-16T08:16:34.797Z,82.09
2022-10-16T08:19:04.107Z,82.11
2022-10-16T08:21:32.932Z,82.01
2022-10-16T08:24:02.002Z,81.76
2022-10-16T08:26:31.498Z,81.88
2022-10-16T08:29:00.140Z,81.74
2022-10-16T08:31:29.085Z,81.64
2022-10-16T08:33:57.768Z,81.13
2022-10-16T08:36:26.448Z,80.45
2022-10-16T08:38:56.897Z,80.44
2022-10-16T08:42:06.427Z,80.50
2022-10-16T08:45:02.509Z,79.58
2022-10-16T08:47:43.129Z,79.11
2022-10-16T08:50:18.989Z,79.25
2022-10-16T08:52:47.876Z,78.50
2022-10-16T08:55:48.187Z,78.49
2022-10-16T08:58:20.778Z,78.22
2022-10-16T09:00:56.304Z,78.02
2022-10-16T09:03:24.788Z,77.56
2022-10-16T09:06:50.634Z,77.66
2022-10-16T09:09:32.520Z,78.03
2022-10-16T09:12:15.448Z,77.88
2022-10-16T09:15:05.737Z,77.86
2022-10-16T09:17:37.287Z,77.83
2022-10-16T09:20:53.028Z,77.90
2022-10-16T09:23:30.258Z,78.18
2022-10-16T09:26:00.429Z,78.40
2022-10-16T09:28:29.209Z,78.23
2022-10-16T09:30:58.790Z,78.45
2022-10-16T09:33:36.827Z,78.48
2022-10-16T09:36:08.028Z,78.30
2022-10-16T09:38:38.368Z,78.18
2022-10-16T09:41:21.729Z,78.06
2022-10-16T09:43:56.008Z,77.13
2022-10-16T09:46:30.748Z,76.44
2022-10-16T09:49:06.967Z,76.07
2022-10-16T09:51:39.277Z,75.54
2022-10-16T09:54:10.828Z,75.39
2022-10-16T09:56:43.585Z,75.10
2022-10-16T09:59:19.223Z,75.33
2022-10-16T10:01:53.588Z,74.87
2022-10-16T10:04:26.966Z,74.94
2022-10-16T10:06:58.865Z,74.46
2022-10-16T10:09:41.230Z,73.83
2022-10-16T10:12:30.137Z,73.34
2022-10-16T10:15:12.307Z,72.75
2022-10-16T10:17:56.769Z,72.16
2022-10-16T10:20:32.016Z,71.76
2022-10-16T10:23:02.289Z,71.33
2022-10-16T10:26:17.807Z,70.88
2022-10-16T10:29:04.525Z,70.39
2022-10-16T10:32:05.050Z,69.76
2022-10-16T10:34:54.301Z,69.05
2022-10-16T10:38:01.307Z,68.87
2022-10-16T10:41:04.916Z,68.18
2022-10-16T10:44:20.301Z,68.31
2022-10-16T10:47:06.901Z,68.08
2022-10-16T10:49:48.086Z,66.93
2022-10-16T10:53:05.209Z,66.67
2022-10-16T10:56:04.929Z,66.89
2022-10-16T10:59:06.269Z,67.04
2022-10-16T11:02:00.420Z,66.59
2022-10-16T11:05:38.668Z,65.92
2022-10-16T11:08:30.089Z,65.89
2022-10-16T11:11:15.669Z,66.04
2022-10-16T11:14:01.450Z,66.02
2022-10-16T11:16:47.565Z,66.23
2022-10-16T11:19:49.819Z,66.20
2022-10-16T11:22:32.605Z,65.79
2022-10-16T11:25:17.399Z,66.89
2022-10-16T11:27:55.628Z,67.07
2022-10-16T11:30:28.878Z,65.95
2022-10-16T11:33:09.380Z,66.07
2022-10-16T11:36:27.307Z,65.52
2022-10-16T11:39:13.834Z,65.87
2022-10-16T11:42:14.969Z,66.42
2022-10-16T11:45:08.948Z,66.36
2022-10-16T11:48:04.066Z,66.35
2022-10-16T11:50:54.351Z,66.79
2022-10-16T11:54:03.681Z,66.93
2022-10-16T11:56:38.507Z,66.87
2022-10-16T11:59:30.034Z,66.66
2022-10-16T12:03:05.085Z,67.51
2022-10-16T12:06:04.277Z,67.28
2022-10-16T12:08:36.967Z,67.32
2022-10-16T12:11:24.493Z,67.49
2022-10-16T12:14:14.177Z,66.98
2022-10-16T12:17:25.348Z,67.04
2022-10-16T12:20:34.039Z,67.17
2022-10-16T12:23:06.973Z,67.17
2022-10-16T12:25:47.728Z,67.55
2022-10-16T12:28:16.208Z,67.48
2022-10-16T12:31:05.930Z,67.72
2022-10-16T12:33:58.028Z,67.78
2022-10-16T12:36:34.039Z,67.67
2022-10-16T12:39:04.708Z,67.95
2022-10-16T12:41:37.238Z,67.64
2022-10-16T12:44:05.878Z,67.72
2022-10-16T12:46:34.667Z,67.62
2022-10-16T12:49:29.987Z,67.94
2022-10-16T12:51:59.461Z,67.86
2022-10-16T12:54:40.147Z,67.89
2022-10-16T12:57:35.577Z,67.51
2022-10-16T13:00:54.568Z,67.82
2022-10-16T13:04:06.548Z,68.22
2022-10-16T13:06:52.928Z,68.50
2022-10-16T13:09:43.328Z,68.66
2022-10-16T13:12:40.088Z,68.86
2022-10-16T13:15:53.929Z,68.83
2022-10-16T13:18:35.508Z,68.95
2022-10-16T13:21:23.148Z,69.01
2022-10-16T13:24:18.959Z,69.09
2022-10-16T13:27:21.969Z,68.97
2022-10-16T13:30:04.278Z,68.85
2022-10-16T13:32:33.274Z,68.94
2022-10-16T13:35:02.550Z,69.07
2022-10-16T13:37:31.849Z,68.92
2022-10-16T13:40:27.060Z,69.15
2022-10-16T13:42:57.508Z,69.17
2022-10-16T13:45:27.988Z,69.17
2022-10-16T13:48:08.228Z,68.88
2022-10-16T13:50:37.387Z,68.40
2022-10-16T13:53:16.429Z,68.27
2022-10-16T13:55:45.178Z,68.38
2022-10-16T13:58:18.257Z,68.17
2022-10-16T14:01:29.987Z,68.22
2022-10-16T14:04:12.469Z,68.58
2022-10-16T14:06:50.681Z,68.65
2022-10-16T14:09:33.738Z,68.78
2022-10-16T14:12:12.727Z,69.21
2022-10-16T14:14:48.569Z,69.44
2022-10-16T14:17:20.557Z,69.64
2022-10-16T14:19:59.670Z,69.93
2022-10-16T14:22:38.518Z,70.08
2022-10-16T14:25:23.094Z,70.31
2022-10-16T14:28:17.060Z,70.36
2022-10-16T14:30:59.069Z,70.61
2022-10-16T14:33:31.218Z,70.45
2022-10-16T14:36:06.228Z,70.41
2022-10-16T14:38:35.971Z,70.41
2022-10-16T14:41:06.708Z,70.53
2022-10-16T14:43:40.622Z,70.86
2022-10-16T14:46:23.109Z,71.02
2022-10-16T14:48:55.498Z,71.10
2022-10-16T14:51:24.289Z,71.23
2022-10-16T14:53:56.539Z,71.20
2022-10-16T14:56:35.590Z,71.43
2022-10-16T14:59:04.777Z,71.50
2022-10-16T15:01:33.360Z,71.52
2022-10-16T15:04:02.335Z,71.65
2022-10-16T15:06:31.360Z,71.69
2022-10-16T15:09:00.051Z,71.79
2022-10-16T15:11:28.848Z,71.95
2022-10-16T15:13:57.432Z,72.05
2022-10-16T15:16:26.348Z,72.05
2022-10-16T15:18:54.888Z,72.11
2022-10-16T15:21:31.967Z,72.19
2022-10-16T15:24:02.009Z,72.38
2022-10-16T15:26:31.920Z,72.60
2022-10-16T15:29:00.564Z,72.80
2022-10-16T15:31:29.078Z,73.00
2022-10-16T15:34:02.888Z,73.11
2022-10-16T15:36:38.045Z,73.29
2022-10-16T15:39:15.528Z,73.42
2022-10-16T15:41:49.728Z,73.45
2022-10-16T15:44:30.710Z,73.53
2022-10-16T15:46:59.799Z,73.72
2022-10-16T15:49:28.388Z,73.94
2022-10-16T15:51:57.189Z,74.27
2022-10-16T15:54:25.869Z,74.44
2022-10-16T15:56:54.449Z,74.74
2022-10-16T15:59:23.128Z,74.99
2022-10-16T16:01:51.928Z,75.29
2022-10-16T16:07:10.078Z,75.78
2022-10-16T16:09:39.080Z,76.08
2022-10-16T16:12:07.968Z,76.33
2022-10-16T16:14:36.868Z,76.56
2022-10-16T16:17:05.449Z,76.68
2022-10-16T16:19:35.150Z,76.84
2022-10-16T16:22:05.275Z,76.96
2022-10-16T16:24:35.588Z,77.13
2022-10-16T16:27:04.592Z,77.31
2022-10-16T16:29:33.428Z,77.45
2022-10-16T16:32:02.927Z,77.63
2022-10-16T16:34:31.990Z,77.83
2022-10-16T16:37:00.988Z,78.00
2022-10-16T16:39:29.658Z,78.07
2022-10-16T16:42:02.669Z,78.25
2022-10-16T16:44:31.649Z,78.44
2022-10-16T16:47:00.528Z,78.57
2022-10-16T16:49:29.217Z,78.80
2022-10-16T16:51:58.109Z,78.87
2022-10-16T16:54:27.253Z,78.92
2022-10-16T16:56:55.988Z,79.07
2022-10-16T16:59:24.672Z,79.04
2022-10-16T17:01:56.988Z,79.00
2022-10-16T17:04:26.257Z,78.98
2022-10-16T17:06:57.237Z,79.13
2022-10-16T17:09:26.191Z,79.30
2022-10-16T17:11:54.971Z,79.47
2022-10-16T17:14:23.557Z,79.50
2022-10-16T17:16:54.318Z,79.59
2022-10-16T17:19:23.088Z,79.60
2022-10-16T17:21:53.215Z,79.72
2022-10-16T17:24:22.248Z,79.87
2022-10-16T17:26:51.395Z,79.98
2022-10-16T17:29:20.089Z,80.13
2022-10-16T17:31:50.463Z,80.30
2022-10-16T17:34:19.468Z,80.44
2022-10-16T17:36:50.567Z,80.68
2022-10-16T17:39:24.469Z,80.83
2022-10-16T17:41:53.958Z,80.91
2022-10-16T17:44:22.839Z,80.99
2022-10-16T17:46:54.616Z,81.00
2022-10-16T17:51:55.148Z,81.25
2022-10-16T17:54:23.759Z,81.41
2022-10-16T17:56:52.841Z,81.61
2022-10-16T17:59:23.473Z,81.73
2022-10-16T18:01:56.530Z,81.78
2022-10-16T18:04:28.109Z,81.84
2022-10-16T18:06:57.014Z,81.86
2022-10-16T18:09:25.808Z,81.90
2022-10-16T18:12:00.418Z,82.20
2022-10-16T18:14:34.410Z,82.25
2022-10-16T18:17:04.860Z,82.29
2022-10-16T18:19:33.948Z,82.39
2022-10-16T18:22:02.948Z,82.38
2022-10-16T18:24:31.664Z,82.30
2022-10-16T18:27:00.519Z,82.33
2022-10-16T18:29:29.629Z,82.45
2022-10-16T18:31:58.316Z,82.56
2022-10-16T18:34:28.428Z,82.79
2022-10-16T18:36:57.928Z,82.91
2022-10-16T18:39:26.915Z,83.17
2022-10-16T18:42:00.235Z,83.36
2022-10-16T18:44:31.639Z,83.56
2022-10-16T18:47:00.269Z,83.60
2022-10-16T18:49:30.166Z,83.60
2022-10-16T18:52:00.908Z,83.66
2022-10-16T18:54:30.828Z,83.56
2022-10-16T18:56:59.606Z,83.51
2022-10-16T18:59:28.525Z,83.61
2022-10-16T19:01:58.485Z,83.66
2022-10-16T19:04:27.840Z,83.79
2022-10-16T19:06:56.708Z,83.92
2022-10-16T19:09:26.106Z,83.98
2022-10-16T19:11:54.710Z,83.90
2022-10-16T19:14:23.584Z,83.91
2022-10-16T19:16:52.311Z,83.91
2022-10-16T19:19:21.276Z,83.89
2022-10-16T19:21:56.308Z,83.92
2022-10-16T19:24:25.209Z,84.08
2022-10-16T19:26:54.086Z,84.34
2022-10-16T19:29:22.882Z,84.38
2022-10-16T19:31:51.889Z,84.58
2022-10-16T19:34:20.656Z,84.74
2022-10-16T19:36:52.116Z,85.03
2022-10-16T19:41:54.206Z,85.09
2022-10-16T19:44:23.084Z,84.99
2022-10-16T19:46:51.768Z,84.95
2022-10-16T19:49:22.297Z,85.14
2022-10-16T19:51:52.825Z,85.18
2022-10-16T19:54:22.025Z,85.36
2022-10-16T19:56:50.710Z,85.61
2022-10-16T19:59:20.605Z,85.90
2022-10-16T20:01:49.289Z,86.03
2022-10-16T20:04:18.514Z,86.08
2022-10-16T20:06:47.203Z,86.03
2022-10-16T20:09:16.011Z,85.94
2022-10-16T20:11:44.795Z,85.70
2022-10-16T20:14:13.467Z,85.86
2022-10-16T20:16:42.469Z,86.14
2022-10-16T20:19:11.548Z,86.46
2022-10-16T20:21:40.808Z,86.34
2022-10-16T20:24:09.867Z,86.59
2022-10-16T20:26:39.458Z,86.71
2022-10-16T20:29:08.581Z,86.63
2022-10-16T20:31:38.168Z,86.78
2022-10-16T20:34:13.108Z,87.11
2022-10-16T20:36:45.667Z,87.26
2022-10-16T20:39:15.088Z,87.27
2022-10-16T20:41:43.968Z,87.14
2022-10-16T20:44:12.692Z,87.16
2022-10-16T20:46:42.368Z,87.18
2022-10-16T20:49:27.645Z,87.16
2022-10-16T20:51:57.353Z,87.36
2022-10-16T20:54:25.837Z,87.60
2022-10-16T20:56:54.725Z,87.77
2022-10-16T20:59:23.196Z,87.92
2022-10-16T21:01:51.944Z,87.88
2022-10-16T21:04:20.588Z,87.64
2022-10-16T21:06:49.569Z,87.83
2022-10-16T21:09:18.164Z,88.12
2022-10-16T21:11:46.748Z,88.23
2022-10-16T21:14:15.326Z,88.26
2022-10-16T21:16:44.069Z,88.35
2022-10-16T21:19:13.228Z,88.29
2022-10-16T21:21:41.786Z,88.38
2022-10-16T21:24:13.468Z,88.52
2022-10-16T21:26:45.527Z,88.50
2022-10-16T21:29:14.905Z,88.41
2022-10-16T21:31:44.116Z,88.41
2022-10-16T21:34:12.696Z,88.50
2022-10-16T21:36:43.187Z,88.56
2022-10-16T21:39:15.451Z,88.53
2022-10-16T21:41:48.186Z,88.56
2022-10-16T21:44:20.454Z,88.70
2022-10-16T21:46:50.906Z,88.81
2022-10-16T21:49:20.289Z,88.49
2022-10-16T21:51:51.834Z,88.40
2022-10-16T21:54:23.874Z,88.41
2022-10-16T21:56:53.397Z,88.53
2022-10-16T22:02:38.315Z,88.74
2022-10-16T22:05:15.649Z,89.16
2022-10-16T22:07:44.375Z,88.97
2022-10-16T22:10:13.035Z,89.24
2022-10-16T22:12:42.265Z,89.54
2022-10-16T22:15:19.519Z,89.55
2022-10-16T22:17:47.913Z,89.58
2022-10-16T22:20:16.423Z,89.54
2022-10-16T22:22:44.936Z,89.49
2022-10-16T22:25:13.444Z,89.46
2022-10-16T22:27:42.137Z,89.30
2022-10-16T22:30:11.409Z,89.31
2022-10-16T22:32:39.889Z,89.44
2022-10-16T22:35:09.074Z,89.60
2022-10-16T22:37:37.524Z,89.69
2022-10-16T22:41:27.876Z,89.74
2022-10-16T22:44:12.440Z,89.65
2022-10-16T22:46:50.407Z,89.43
2022-10-16T22:49:53.860Z,89.31
2022-10-16T22:52:40.953Z,89.30
2022-10-16T22:55:22.795Z,89.25
2022-10-16T23:02:13.915Z,89.09
2022-10-16T23:05:09.184Z,88.79
2022-10-16T23:07:46.981Z,88.87
2022-10-16T23:10:16.413Z,88.99
2022-10-16T23:12:46.938Z,89.10
2022-10-16T23:15:16.292Z,89.02
2022-10-16T23:17:45.376Z,88.90
2022-10-16T23:20:14.283Z,88.90
2022-10-16T23:22:50.874Z,89.05
2022-10-16T23:26:00.140Z,89.19
2022-10-16T23:28:32.524Z,88.98
2022-10-16T23:32:11.584Z,88.84
2022-10-16T23:35:03.592Z,88.60
2022-10-16T23:38:00.893Z,88.60
2022-10-16T23:41:27.300Z,88.82
2022-10-16T23:44:45.293Z,89.01
2022-10-16T23:47:49.714Z,89.21
2022-10-16T23:50:36.981Z,89.25
2022-10-16T23:54:03.892Z,89.11
2022-10-16T23:56:43.452Z,89.10
2022-10-16T23:59:12.372Z,89.40
